Terminal Aerodrome Forecast
Issued by NWS Riverton, WY

Home | Current Version | Previous Version | Text Only | Print | Product List | Glossary On
Versions: 1 2 3 4 5 6 7 8 9 10 11 12 13 14 15
000
FTUS45 KRIW 011100
TAFRIW
TAF
KRIW 011124Z 0112/0212 33010KT P6SM FEW110 SCT250
     FM011400 VRB05KT P6SM SCT250
     FM011800 04006KT P6SM SCT100
     FM012300 02007KT P6SM SCT100 BKN150
     FM020500 33008KT P6SM SCT120=

USA.gov is the U.S. government's official web portal to all federal, state and local government web resources and services.